sensor_id;sensor_type;location;lat;lon;timestamp;pressure;altitude;pressure_sealevel;temperature;humidity
76337;BME280;65157;50.082;18.178;2022-12-20T00:00:58;100395.13;;;-0.02;77.42
76337;BME280;65157;50.082;18.178;2022-12-20T00:03:25;100393.97;;;0.01;77.55
76337;BME280;65157;50.082;18.178;2022-12-20T00:05:51;100388.39;;;0.01;77.28
76337;BME280;65157;50.082;18.178;2022-12-20T00:08:18;100393.42;;;-0.00;77.60
76337;BME280;65157;50.082;18.178;2022-12-20T00:10:45;100387.67;;;-0.02;77.70
76337;BME280;65157;50.082;18.178;2022-12-20T00:13:12;100389.04;;;-0.03;77.77
76337;BME280;65157;50.082;18.178;2022-12-20T00:15:39;100375.30;;;-0.04;77.77
76337;BME280;65157;50.082;18.178;2022-12-20T00:18:06;100351.08;;;-0.00;77.96
76337;BME280;65157;50.082;18.178;2022-12-20T00:20:33;100340.34;;;0.00;78.10
76337;BME280;65157;50.082;18.178;2022-12-20T00:23:00;100341.02;;;-0.00;77.91
76337;BME280;65157;50.082;18.178;2022-12-20T00:25:27;100347.44;;;-0.01;78.38
76337;BME280;65157;50.082;18.178;2022-12-20T00:27:54;100352.28;;;-0.01;78.51
76337;BME280;65157;50.082;18.178;2022-12-20T00:30:20;100350.05;;;0.01;78.64
76337;BME280;65157;50.082;18.178;2022-12-20T00:32:47;100351.98;;;0.02;78.74
76337;BME280;65157;50.082;18.178;2022-12-20T00:35:14;100345.22;;;0.02;78.31
76337;BME280;65157;50.082;18.178;2022-12-20T00:37:41;100342.53;;;-0.03;78.18
76337;BME280;65157;50.082;18.178;2022-12-20T00:40:08;100357.85;;;0.00;78.25
76337;BME280;65157;50.082;18.178;2022-12-20T00:42:34;100357.67;;;-0.01;78.50
76337;BME280;65157;50.082;18.178;2022-12-20T00:45:02;100368.02;;;-0.04;78.56
76337;BME280;65157;50.082;18.178;2022-12-20T00:47:28;100377.39;;;-0.05;78.44
76337;BME280;65157;50.082;18.178;2022-12-20T00:49:55;100387.63;;;-0.04;78.47
76337;BME280;65157;50.082;18.178;2022-12-20T00:52:22;100390.77;;;-0.04;78.49
76337;BME280;65157;50.082;18.178;2022-12-20T00:54:48;100394.55;;;-0.05;78.59
76337;BME280;65157;50.082;18.178;2022-12-20T00:57:15;100391.23;;;-0.05;78.56
76337;BME280;65157;50.082;18.178;2022-12-20T00:59:42;100381.84;;;-0.07;78.91
76337;BME280;65157;50.082;18.178;2022-12-20T01:02:08;100360.30;;;-0.09;78.71
76337;BME280;65157;50.082;18.178;2022-12-20T01:04:35;100345.55;;;-0.09;78.67
76337;BME280;65157;50.082;18.178;2022-12-20T01:07:02;100340.56;;;-0.06;78.29
76337;BME280;65157;50.082;18.178;2022-12-20T01:09:28;100345.98;;;-0.04;78.25
76337;BME280;65157;50.082;18.178;2022-12-20T01:11:55;100353.66;;;-0.02;77.84
76337;BME280;65157;50.082;18.178;2022-12-20T01:14:21;100346.70;;;-0.02;77.86
76337;BME280;65157;50.082;18.178;2022-12-20T01:16:48;100339.76;;;-0.02;77.88
76337;BME280;65157;50.082;18.178;2022-12-20T01:19:16;100340.48;;;-0.01;77.61
76337;BME280;65157;50.082;18.178;2022-12-20T01:21:43;100350.05;;;0.00;77.75
76337;BME280;65157;50.082;18.178;2022-12-20T01:24:15;100356.34;;;0.03;77.74
76337;BME280;65157;50.082;18.178;2022-12-20T01:26:42;100351.31;;;0.03;77.62
76337;BME280;65157;50.082;18.178;2022-12-20T01:29:09;100347.78;;;-0.00;77.65
76337;BME280;65157;50.082;18.178;2022-12-20T01:31:36;100349.65;;;-0.03;77.55
76337;BME280;65157;50.082;18.178;2022-12-20T01:34:03;100342.66;;;-0.05;77.50
76337;BME280;65157;50.082;18.178;2022-12-20T01:36:32;100338.14;;;-0.06;77.68
76337;BME280;65157;50.082;18.178;2022-12-20T01:39:06;100340.75;;;-0.05;77.39
76337;BME280;65157;50.082;18.178;2022-12-20T01:41:35;100340.20;;;-0.07;77.22
76337;BME280;65157;50.082;18.178;2022-12-20T01:46:53;100334.02;;;-0.13;77.27
76337;BME280;65157;50.082;18.178;2022-12-20T01:49:28;100327.17;;;-0.17;77.19
76337;BME280;65157;50.082;18.178;2022-12-20T01:52:03;100320.16;;;-0.21;77.38
76337;BME280;65157;50.082;18.178;2022-12-20T01:54:45;100319.48;;;-0.20;77.09
76337;BME280;65157;50.082;18.178;2022-12-20T01:57:17;100321.02;;;-0.22;77.13
76337;BME280;65157;50.082;18.178;2022-12-20T01:59:47;100318.38;;;-0.24;77.05
76337;BME280;65157;50.082;18.178;2022-12-20T02:02:16;100326.86;;;-0.25;77.21
76337;BME280;65157;50.082;18.178;2022-12-20T02:04:43;100328.58;;;-0.26;77.34
76337;BME280;65157;50.082;18.178;2022-12-20T02:07:15;100333.90;;;-0.28;77.33
76337;BME280;65157;50.082;18.178;2022-12-20T02:09:44;100336.12;;;-0.31;77.07
76337;BME280;65157;50.082;18.178;2022-12-20T02:12:15;100355.23;;;-0.29;77.26
76337;BME280;65157;50.082;18.178;2022-12-20T02:17:42;100354.42;;;-0.25;77.27
76337;BME280;65157;50.082;18.178;2022-12-20T02:20:32;100348.86;;;-0.26;77.04
76337;BME280;65157;50.082;18.178;2022-12-20T02:23:37;100343.66;;;-0.26;76.94
76337;BME280;65157;50.082;18.178;2022-12-20T02:26:20;100347.83;;;-0.26;76.94
76337;BME280;65157;50.082;18.178;2022-12-20T02:34:23;100361.48;;;-0.19;76.78
76337;BME280;65157;50.082;18.178;2022-12-20T02:36:52;100358.27;;;-0.15;76.84
76337;BME280;65157;50.082;18.178;2022-12-20T02:39:20;100350.51;;;-0.13;76.49
76337;BME280;65157;50.082;18.178;2022-12-20T02:41:50;100345.66;;;-0.12;76.70
76337;BME280;65157;50.082;18.178;2022-12-20T02:44:22;100345.19;;;-0.09;76.39
76337;BME280;65157;50.082;18.178;2022-12-20T02:47:12;100335.10;;;-0.11;76.39
76337;BME280;65157;50.082;18.178;2022-12-20T02:49:41;100328.13;;;-0.12;76.33
76337;BME280;65157;50.082;18.178;2022-12-20T02:52:11;100333.13;;;-0.14;76.40
76337;BME280;65157;50.082;18.178;2022-12-20T02:54:39;100338.81;;;-0.17;76.43
76337;BME280;65157;50.082;18.178;2022-12-20T02:59:54;100344.21;;;-0.16;76.14
76337;BME280;65157;50.082;18.178;2022-12-20T03:02:23;100345.90;;;-0.17;76.38
76337;BME280;65157;50.082;18.178;2022-12-20T03:04:51;100335.14;;;-0.19;76.32
76337;BME280;65157;50.082;18.178;2022-12-20T03:07:18;100329.55;;;-0.20;76.16
76337;BME280;65157;50.082;18.178;2022-12-20T03:09:45;100321.88;;;-0.23;76.29
76337;BME280;65157;50.082;18.178;2022-12-20T03:12:14;100321.47;;;-0.25;76.50
76337;BME280;65157;50.082;18.178;2022-12-20T03:14:41;100315.23;;;-0.25;76.67
76337;BME280;65157;50.082;18.178;2022-12-20T03:17:08;100309.70;;;-0.24;76.23
76337;BME280;65157;50.082;18.178;2022-12-20T03:19:35;100314.89;;;-0.25;76.38
76337;BME280;65157;50.082;18.178;2022-12-20T03:22:01;100308.98;;;-0.26;76.62
76337;BME280;65157;50.082;18.178;2022-12-20T03:24:28;100310.14;;;-0.29;76.39
76337;BME280;65157;50.082;18.178;2022-12-20T03:26:55;100308.18;;;-0.31;76.49
76337;BME280;65157;50.082;18.178;2022-12-20T03:29:21;100302.42;;;-0.34;76.54
76337;BME280;65157;50.082;18.178;2022-12-20T03:31:48;100301.00;;;-0.35;76.72
76337;BME280;65157;50.082;18.178;2022-12-20T03:34:14;100300.14;;;-0.34;76.84
76337;BME280;65157;50.082;18.178;2022-12-20T03:36:41;100294.98;;;-0.32;77.02
76337;BME280;65157;50.082;18.178;2022-12-20T03:39:08;100292.09;;;-0.29;76.86
76337;BME280;65157;50.082;18.178;2022-12-20T03:41:35;100280.31;;;-0.28;76.76
76337;BME280;65157;50.082;18.178;2022-12-20T03:44:01;100283.96;;;-0.28;76.75
76337;BME280;65157;50.082;18.178;2022-12-20T03:46:28;100280.63;;;-0.30;76.74
76337;BME280;65157;50.082;18.178;2022-12-20T03:48:54;100278.85;;;-0.32;77.05
76337;BME280;65157;50.082;18.178;2022-12-20T03:51:21;100277.30;;;-0.32;76.96
76337;BME280;65157;50.082;18.178;2022-12-20T03:53:48;100275.27;;;-0.30;76.93
76337;BME280;65157;50.082;18.178;2022-12-20T03:56:14;100280.50;;;-0.27;76.96
76337;BME280;65157;50.082;18.178;2022-12-20T03:58:41;100284.68;;;-0.26;76.66
76337;BME280;65157;50.082;18.178;2022-12-20T04:01:19;100290.56;;;-0.27;76.60
76337;BME280;65157;50.082;18.178;2022-12-20T04:03:46;100299.72;;;-0.30;76.92
76337;BME280;65157;50.082;18.178;2022-12-20T04:06:13;100296.55;;;-0.31;76.68
76337;BME280;65157;50.082;18.178;2022-12-20T04:08:40;100301.56;;;-0.33;77.00
76337;BME280;65157;50.082;18.178;2022-12-20T04:11:06;100308.64;;;-0.34;77.17
76337;BME280;65157;50.082;18.178;2022-12-20T04:13:49;100309.30;;;-0.36;77.03
76337;BME280;65157;50.082;18.178;2022-12-20T04:16:19;100310.45;;;-0.39;77.10
76337;BME280;65157;50.082;18.178;2022-12-20T04:18:46;100307.27;;;-0.43;77.10
76337;BME280;65157;50.082;18.178;2022-12-20T04:21:13;100304.02;;;-0.40;77.21
76337;BME280;65157;50.082;18.178;2022-12-20T04:23:41;100303.02;;;-0.38;77.04
76337;BME280;65157;50.082;18.178;2022-12-20T04:26:09;100304.95;;;-0.37;77.11
76337;BME280;65157;50.082;18.178;2022-12-20T04:28:36;100300.78;;;-0.38;77.01
76337;BME280;65157;50.082;18.178;2022-12-20T04:31:03;100297.64;;;-0.39;77.29
76337;BME280;65157;50.082;18.178;2022-12-20T04:33:30;100298.32;;;-0.39;77.34
76337;BME280;65157;50.082;18.178;2022-12-20T04:35:57;100298.81;;;-0.40;77.50
76337;BME280;65157;50.082;18.178;2022-12-20T04:38:23;100295.65;;;-0.42;77.72
76337;BME280;65157;50.082;18.178;2022-12-20T04:40:52;100281.20;;;-0.46;77.61
76337;BME280;65157;50.082;18.178;2022-12-20T04:43:19;100282.91;;;-0.39;77.71
76337;BME280;65157;50.082;18.178;2022-12-20T04:45:47;100273.59;;;-0.35;77.82
76337;BME280;65157;50.082;18.178;2022-12-20T04:48:15;100261.81;;;-0.34;77.61
76337;BME280;65157;50.082;18.178;2022-12-20T04:50:42;100260.95;;;-0.34;77.67
76337;BME280;65157;50.082;18.178;2022-12-20T04:53:10;100264.02;;;-0.37;77.97
76337;BME280;65157;50.082;18.178;2022-12-20T04:55:55;100270.52;;;-0.41;77.91
76337;BME280;65157;50.082;18.178;2022-12-20T04:58:22;100276.14;;;-0.47;78.23
76337;BME280;65157;50.082;18.178;2022-12-20T05:00:49;100275.46;;;-0.47;78.19
76337;BME280;65157;50.082;18.178;2022-12-20T05:03:21;100272.56;;;-0.44;78.36
76337;BME280;65157;50.082;18.178;2022-12-20T05:05:49;100269.70;;;-0.40;78.43
76337;BME280;65157;50.082;18.178;2022-12-20T05:08:16;100261.77;;;-0.37;78.37
76337;BME280;65157;50.082;18.178;2022-12-20T05:10:43;100254.33;;;-0.36;78.50
76337;BME280;65157;50.082;18.178;2022-12-20T05:13:10;100252.91;;;-0.37;78.55
76337;BME280;65157;50.082;18.178;2022-12-20T05:15:37;100246.85;;;-0.38;78.73
76337;BME280;65157;50.082;18.178;2022-12-20T05:18:04;100251.54;;;-0.38;78.60
76337;BME280;65157;50.082;18.178;2022-12-20T05:20:31;100246.19;;;-0.35;78.58
76337;BME280;65157;50.082;18.178;2022-12-20T05:22:57;100247.45;;;-0.32;78.54
76337;BME280;65157;50.082;18.178;2022-12-20T05:25:48;100248.54;;;-0.30;78.49
76337;BME280;65157;50.082;18.178;2022-12-20T05:28:28;100251.33;;;-0.29;78.62
76337;BME280;65157;50.082;18.178;2022-12-20T05:30:55;100254.63;;;-0.29;78.38
76337;BME280;65157;50.082;18.178;2022-12-20T05:33:22;100256.18;;;-0.29;78.60
76337;BME280;65157;50.082;18.178;2022-12-20T05:35:48;100252.90;;;-0.29;78.39
76337;BME280;65157;50.082;18.178;2022-12-20T05:38:15;100248.08;;;-0.27;78.28
76337;BME280;65157;50.082;18.178;2022-12-20T05:40:42;100246.89;;;-0.25;78.08
76337;BME280;65157;50.082;18.178;2022-12-20T05:43:10;100246.73;;;-0.23;78.26
76337;BME280;65157;50.082;18.178;2022-12-20T05:45:36;100243.14;;;-0.21;78.10
76337;BME280;65157;50.082;18.178;2022-12-20T05:48:03;100245.77;;;-0.19;77.98
76337;BME280;65157;50.082;18.178;2022-12-20T05:50:30;100247.84;;;-0.20;77.98
76337;BME280;65157;50.082;18.178;2022-12-20T05:52:56;100249.20;;;-0.22;77.88
76337;BME280;65157;50.082;18.178;2022-12-20T05:55:23;100243.95;;;-0.24;78.16
76337;BME280;65157;50.082;18.178;2022-12-20T05:57:50;100245.52;;;-0.23;78.18
76337;BME280;65157;50.082;18.178;2022-12-20T06:00:16;100243.85;;;-0.20;78.03
76337;BME280;65157;50.082;18.178;2022-12-20T06:02:43;100237.45;;;-0.19;78.18
76337;BME280;65157;50.082;18.178;2022-12-20T06:05:10;100239.56;;;-0.18;78.05
76337;BME280;65157;50.082;18.178;2022-12-20T06:07:37;100236.77;;;-0.18;78.12
76337;BME280;65157;50.082;18.178;2022-12-20T06:10:04;100234.14;;;-0.20;78.29
76337;BME280;65157;50.082;18.178;2022-12-20T06:12:31;100231.36;;;-0.20;78.35
76337;BME280;65157;50.082;18.178;2022-12-20T06:14:57;100226.16;;;-0.19;78.39
76337;BME280;65157;50.082;18.178;2022-12-20T06:17:24;100223.45;;;-0.16;78.27
76337;BME280;65157;50.082;18.178;2022-12-20T06:19:51;100218.97;;;-0.14;78.18
76337;BME280;65157;50.082;18.178;2022-12-20T06:22:18;100211.52;;;-0.13;78.39
76337;BME280;65157;50.082;18.178;2022-12-20T06:24:44;100207.02;;;-0.13;78.38
76337;BME280;65157;50.082;18.178;2022-12-20T06:27:11;100207.88;;;-0.13;78.40
76337;BME280;65157;50.082;18.178;2022-12-20T06:29:38;100212.38;;;-0.15;78.53
76337;BME280;65157;50.082;18.178;2022-12-20T06:32:04;100224.00;;;-0.14;78.47
76337;BME280;65157;50.082;18.178;2022-12-20T06:34:31;100235.31;;;-0.11;78.51
76337;BME280;65157;50.082;18.178;2022-12-20T06:36:58;100241.98;;;-0.07;78.47
76337;BME280;65157;50.082;18.178;2022-12-20T06:39:25;100250.17;;;-0.05;78.35
76337;BME280;65157;50.082;18.178;2022-12-20T06:41:51;100250.04;;;-0.02;78.12
76337;BME280;65157;50.082;18.178;2022-12-20T06:44:18;100239.63;;;-0.03;78.24
76337;BME280;65157;50.082;18.178;2022-12-20T06:46:45;100239.29;;;-0.03;78.20
76337;BME280;65157;50.082;18.178;2022-12-20T06:49:11;100244.33;;;-0.02;78.23
76337;BME280;65157;50.082;18.178;2022-12-20T06:51:38;100250.56;;;-0.03;78.26
76337;BME280;65157;50.082;18.178;2022-12-20T06:54:05;100244.98;;;-0.04;78.13
76337;BME280;65157;50.082;18.178;2022-12-20T06:56:31;100239.91;;;-0.07;78.30
76337;BME280;65157;50.082;18.178;2022-12-20T06:58:58;100230.31;;;-0.10;78.39
76337;BME280;65157;50.082;18.178;2022-12-20T07:01:25;100222.35;;;-0.09;78.37
76337;BME280;65157;50.082;18.178;2022-12-20T07:03:51;100215.08;;;-0.08;78.65
76337;BME280;65157;50.082;18.178;2022-12-20T07:06:18;100214.36;;;-0.09;78.62
76337;BME280;65157;50.082;18.178;2022-12-20T07:08:45;100205.67;;;-0.10;78.79
76337;BME280;65157;50.082;18.178;2022-12-20T07:11:12;100215.02;;;-0.11;78.57
76337;BME280;65157;50.082;18.178;2022-12-20T07:13:38;100213.11;;;-0.12;78.81
76337;BME280;65157;50.082;18.178;2022-12-20T07:16:06;100219.35;;;-0.12;78.60
76337;BME280;65157;50.082;18.178;2022-12-20T07:18:32;100230.30;;;-0.10;78.60
76337;BME280;65157;50.082;18.178;2022-12-20T07:21:03;100234.87;;;-0.07;78.33
76337;BME280;65157;50.082;18.178;2022-12-20T07:23:30;100246.39;;;-0.03;78.38
76337;BME280;65157;50.082;18.178;2022-12-20T07:25:59;100255.48;;;0.01;78.32
76337;BME280;65157;50.082;18.178;2022-12-20T07:28:27;100254.71;;;0.08;78.23
76337;BME280;65157;50.082;18.178;2022-12-20T07:30:53;100261.05;;;0.14;78.02
76337;BME280;65157;50.082;18.178;2022-12-20T07:33:20;100259.93;;;0.19;78.01
76337;BME280;65157;50.082;18.178;2022-12-20T07:35:47;100253.71;;;0.21;77.91
76337;BME280;65157;50.082;18.178;2022-12-20T07:38:15;100247.31;;;0.23;77.71
76337;BME280;65157;50.082;18.178;2022-12-20T07:40:42;100240.01;;;0.22;77.63
76337;BME280;65157;50.082;18.178;2022-12-20T07:43:09;100238.40;;;0.19;77.69
76337;BME280;65157;50.082;18.178;2022-12-20T07:45:36;100241.91;;;0.21;77.66
76337;BME280;65157;50.082;18.178;2022-12-20T07:48:04;100242.11;;;0.23;77.59
76337;BME280;65157;50.082;18.178;2022-12-20T07:50:32;100232.94;;;0.25;77.60
76337;BME280;65157;50.082;18.178;2022-12-20T07:53:01;100229.88;;;0.29;77.38
76337;BME280;65157;50.082;18.178;2022-12-20T07:55:30;100223.45;;;0.29;77.48
76337;BME280;65157;50.082;18.178;2022-12-20T07:58:02;100223.48;;;0.31;77.58
76337;BME280;65157;50.082;18.178;2022-12-20T08:00:31;100232.52;;;0.31;77.34
76337;BME280;65157;50.082;18.178;2022-12-20T08:03:03;100230.98;;;0.32;77.53
76337;BME280;65157;50.082;18.178;2022-12-20T08:05:34;100235.89;;;0.36;77.46
76337;BME280;65157;50.082;18.178;2022-12-20T08:08:04;100234.08;;;0.42;77.61
76337;BME280;65157;50.082;18.178;2022-12-20T08:10:31;100238.33;;;0.49;77.20
76337;BME280;65157;50.082;18.178;2022-12-20T08:12:58;100236.82;;;0.53;76.81
76337;BME280;65157;50.082;18.178;2022-12-20T08:15:25;100240.69;;;0.56;76.89
76337;BME280;65157;50.082;18.178;2022-12-20T08:17:53;100230.45;;;0.58;76.85
76337;BME280;65157;50.082;18.178;2022-12-20T08:20:20;100230.83;;;0.60;76.67
76337;BME280;65157;50.082;18.178;2022-12-20T08:22:47;100222.50;;;0.60;76.79
76337;BME280;65157;50.082;18.178;2022-12-20T08:25:14;100222.17;;;0.62;76.70
76337;BME280;65157;50.082;18.178;2022-12-20T08:27:40;100225.36;;;0.66;76.60
76337;BME280;65157;50.082;18.178;2022-12-20T08:30:07;100227.63;;;0.67;76.52
76337;BME280;65157;50.082;18.178;2022-12-20T08:32:36;100227.98;;;0.68;76.79
76337;BME280;65157;50.082;18.178;2022-12-20T08:35:03;100226.11;;;0.70;76.68
76337;BME280;65157;50.082;18.178;2022-12-20T08:37:30;100236.71;;;0.71;76.60
76337;BME280;65157;50.082;18.178;2022-12-20T08:39:56;100220.58;;;0.72;76.64
76337;BME280;65157;50.082;18.178;2022-12-20T08:42:23;100228.08;;;0.75;76.76
76337;BME280;65157;50.082;18.178;2022-12-20T08:44:50;100217.35;;;0.79;76.41
76337;BME280;65157;50.082;18.178;2022-12-20T08:47:16;100216.02;;;0.83;76.42
76337;BME280;65157;50.082;18.178;2022-12-20T08:49:43;100207.53;;;0.86;76.43
76337;BME280;65157;50.082;18.178;2022-12-20T08:52:10;100212.96;;;0.89;76.56
76337;BME280;65157;50.082;18.178;2022-12-20T08:54:36;100234.05;;;0.93;76.46
76337;BME280;65157;50.082;18.178;2022-12-20T08:57:03;100233.02;;;0.95;76.17
76337;BME280;65157;50.082;18.178;2022-12-20T08:59:30;100218.46;;;0.98;76.12
76337;BME280;65157;50.082;18.178;2022-12-20T09:01:56;100213.30;;;1.03;75.94
76337;BME280;65157;50.082;18.178;2022-12-20T09:04:23;100213.50;;;1.05;75.83
76337;BME280;65157;50.082;18.178;2022-12-20T09:06:50;100217.67;;;1.06;76.20
76337;BME280;65157;50.082;18.178;2022-12-20T09:09:16;100206.73;;;1.05;75.70
76337;BME280;65157;50.082;18.178;2022-12-20T09:11:43;100195.91;;;1.02;75.58
76337;BME280;65157;50.082;18.178;2022-12-20T09:14:10;100184.04;;;0.98;75.59
76337;BME280;65157;50.082;18.178;2022-12-20T09:16:36;100171.66;;;0.94;75.57
76337;BME280;65157;50.082;18.178;2022-12-20T09:19:04;100157.86;;;0.88;75.38
76337;BME280;65157;50.082;18.178;2022-12-20T09:21:31;100150.36;;;0.86;75.41
76337;BME280;65157;50.082;18.178;2022-12-20T09:23:57;100147.91;;;0.83;75.26
76337;BME280;65157;50.082;18.178;2022-12-20T09:26:24;100165.79;;;0.82;75.47
76337;BME280;65157;50.082;18.178;2022-12-20T09:28:51;100170.46;;;0.82;75.30
76337;BME280;65157;50.082;18.178;2022-12-20T09:31:23;100172.97;;;0.87;75.43
76337;BME280;65157;50.082;18.178;2022-12-20T09:33:54;100181.23;;;0.94;75.20
76337;BME280;65157;50.082;18.178;2022-12-20T09:36:23;100188.10;;;1.02;75.19
76337;BME280;65157;50.082;18.178;2022-12-20T09:38:50;100180.01;;;1.10;74.85
76337;BME280;65157;50.082;18.178;2022-12-20T09:41:40;100185.62;;;1.16;74.51
76337;BME280;65157;50.082;18.178;2022-12-20T09:44:24;100177.36;;;1.23;74.79
76337;BME280;65157;50.082;18.178;2022-12-20T09:47:04;100182.83;;;1.31;74.43
76337;BME280;65157;50.082;18.178;2022-12-20T09:49:34;100184.46;;;1.39;74.85
76337;BME280;65157;50.082;18.178;2022-12-20T10:00:13;100139.67;;;1.69;73.66
76337;BME280;65157;50.082;18.178;2022-12-20T10:02:41;100146.86;;;1.76;73.66
76337;BME280;65157;50.082;18.178;2022-12-20T10:05:17;100146.02;;;1.80;73.35
76337;BME280;65157;50.082;18.178;2022-12-20T10:08:07;100144.15;;;1.86;73.28
76337;BME280;65157;50.082;18.178;2022-12-20T10:24:03;100142.59;;;2.13;71.88
76337;BME280;65157;50.082;18.178;2022-12-20T10:26:32;100136.46;;;2.07;72.01
76337;BME280;65157;50.082;18.178;2022-12-20T10:28:59;100142.02;;;2.05;71.91
76337;BME280;65157;50.082;18.178;2022-12-20T10:31:26;100135.02;;;2.00;72.08
76337;BME280;65157;50.082;18.178;2022-12-20T10:33:53;100137.23;;;1.90;72.03
76337;BME280;65157;50.082;18.178;2022-12-20T10:36:37;100130.70;;;1.79;71.84
76337;BME280;65157;50.082;18.178;2022-12-20T10:39:06;100123.81;;;1.67;71.87
76337;BME280;65157;50.082;18.178;2022-12-20T10:44:26;100096.08;;;1.56;72.39
76337;BME280;65157;50.082;18.178;2022-12-20T10:46:55;100089.10;;;1.53;72.31
76337;BME280;65157;50.082;18.178;2022-12-20T10:52:01;100089.11;;;1.80;72.45
76337;BME280;65157;50.082;18.178;2022-12-20T10:54:32;100091.88;;;2.04;72.28
76337;BME280;65157;50.082;18.178;2022-12-20T10:57:02;100097.70;;;2.19;71.61
76337;BME280;65157;50.082;18.178;2022-12-20T10:59:41;100098.94;;;2.23;71.32
76337;BME280;65157;50.082;18.178;2022-12-20T11:02:35;100098.09;;;2.27;71.62
76337;BME280;65157;50.082;18.178;2022-12-20T11:07:59;100075.05;;;2.65;70.69
76337;BME280;65157;50.082;18.178;2022-12-20T11:10:32;100068.48;;;2.86;70.52
76337;BME280;65157;50.082;18.178;2022-12-20T11:13:00;100058.73;;;3.05;69.89
76337;BME280;65157;50.082;18.178;2022-12-20T11:15:30;100051.26;;;3.22;69.62
76337;BME280;65157;50.082;18.178;2022-12-20T11:18:12;100043.05;;;3.35;68.72
76337;BME280;65157;50.082;18.178;2022-12-20T11:23:26;100051.08;;;3.29;68.07
76337;BME280;65157;50.082;18.178;2022-12-20T11:28:57;100038.86;;;3.27;67.56
76337;BME280;65157;50.082;18.178;2022-12-20T11:34:03;100018.28;;;3.07;67.94
76337;BME280;65157;50.082;18.178;2022-12-20T11:42:10;100025.07;;;2.87;68.31
76337;BME280;65157;50.082;18.178;2022-12-20T11:52:58;100044.81;;;3.06;67.90
76337;BME280;65157;50.082;18.178;2022-12-20T11:55:31;100034.66;;;2.98;68.18
76337;BME280;65157;50.082;18.178;2022-12-20T11:58:10;100030.30;;;2.93;68.51
76337;BME280;65157;50.082;18.178;2022-12-20T12:00:40;100035.88;;;2.85;68.47
76337;BME280;65157;50.082;18.178;2022-12-20T12:03:36;100044.94;;;2.77;68.81
76337;BME280;65157;50.082;18.178;2022-12-20T12:06:16;100036.36;;;2.68;69.42
76337;BME280;65157;50.082;18.178;2022-12-20T12:11:28;100012.95;;;2.42;68.96
76337;BME280;65157;50.082;18.178;2022-12-20T12:13:58;100018.84;;;2.31;69.64
76337;BME280;65157;50.082;18.178;2022-12-20T12:16:32;100016.20;;;2.20;69.60
76337;BME280;65157;50.082;18.178;2022-12-20T12:19:00;100016.64;;;2.02;69.94
76337;BME280;65157;50.082;18.178;2022-12-20T12:21:34;100016.94;;;1.91;70.25
76337;BME280;65157;50.082;18.178;2022-12-20T12:26:48;100012.84;;;1.71;70.92
76337;BME280;65157;50.082;18.178;2022-12-20T12:29:16;100008.10;;;1.62;71.30
76337;BME280;65157;50.082;18.178;2022-12-20T12:40:13;99996.27;;;1.63;72.07
76337;BME280;65157;50.082;18.178;2022-12-20T12:43:24;100011.36;;;1.60;72.37
76337;BME280;65157;50.082;18.178;2022-12-20T12:46:07;100015.18;;;1.56;72.40
76337;BME280;65157;50.082;18.178;2022-12-20T12:48:39;100002.48;;;1.57;72.69
76337;BME280;65157;50.082;18.178;2022-12-20T12:51:08;99998.52;;;1.96;72.74
76337;BME280;65157;50.082;18.178;2022-12-20T12:53:41;100003.91;;;2.46;71.54
76337;BME280;65157;50.082;18.178;2022-12-20T13:01:54;100004.73;;;2.28;70.66
76337;BME280;65157;50.082;18.178;2022-12-20T13:04:27;100004.34;;;2.16;71.00
76337;BME280;65157;50.082;18.178;2022-12-20T13:07:02;100007.77;;;2.02;71.30
76337;BME280;65157;50.082;18.178;2022-12-20T13:11:56;100020.68;;;1.74;72.18
76337;BME280;65157;50.082;18.178;2022-12-20T13:16:51;100005.77;;;1.53;73.02
76337;BME280;65157;50.082;18.178;2022-12-20T13:22:40;100006.06;;;1.44;73.23
76337;BME280;65157;50.082;18.178;2022-12-20T13:37:52;100011.17;;;1.27;74.01
76337;BME280;65157;50.082;18.178;2022-12-20T13:40:45;100007.67;;;1.26;73.85
76337;BME280;65157;50.082;18.178;2022-12-20T13:51:04;100003.99;;;1.22;73.87
76337;BME280;65157;50.082;18.178;2022-12-20T13:53:33;99996.67;;;1.19;73.84
76337;BME280;65157;50.082;18.178;2022-12-20T13:58:56;100001.17;;;1.19;73.93
76337;BME280;65157;50.082;18.178;2022-12-20T14:01:24;100016.67;;;1.20;73.84
76337;BME280;65157;50.082;18.178;2022-12-20T14:03:52;100014.93;;;1.20;74.17
76337;BME280;65157;50.082;18.178;2022-12-20T14:06:20;100009.00;;;1.17;73.97
76337;BME280;65157;50.082;18.178;2022-12-20T14:08:49;100010.19;;;1.13;74.15
76337;BME280;65157;50.082;18.178;2022-12-20T14:11:22;99997.80;;;1.07;74.27
76337;BME280;65157;50.082;18.178;2022-12-20T14:13:58;99990.62;;;1.01;74.33
76337;BME280;65157;50.082;18.178;2022-12-20T14:16:28;99992.16;;;0.98;74.42
76337;BME280;65157;50.082;18.178;2022-12-20T14:21:22;99980.62;;;0.90;74.49
76337;BME280;65157;50.082;18.178;2022-12-20T14:23:55;99968.94;;;0.85;74.58
76337;BME280;65157;50.082;18.178;2022-12-20T14:26:34;99957.61;;;0.82;74.89
76337;BME280;65157;50.082;18.178;2022-12-20T14:29:10;99953.94;;;0.78;74.76
76337;BME280;65157;50.082;18.178;2022-12-20T14:31:42;99954.09;;;0.75;74.95
76337;BME280;65157;50.082;18.178;2022-12-20T14:36:48;99957.91;;;0.76;74.97
76337;BME280;65157;50.082;18.178;2022-12-20T14:39:34;99956.34;;;0.75;75.23
76337;BME280;65157;50.082;18.178;2022-12-20T14:44:35;99980.27;;;0.70;75.20
76337;BME280;65157;50.082;18.178;2022-12-20T14:47:14;99989.30;;;0.70;75.35
76337;BME280;65157;50.082;18.178;2022-12-20T14:49:52;99984.42;;;0.67;75.21
76337;BME280;65157;50.082;18.178;2022-12-20T14:52:29;99977.23;;;0.60;75.49
76337;BME280;65157;50.082;18.178;2022-12-20T14:55:03;99982.58;;;0.55;75.45
76337;BME280;65157;50.082;18.178;2022-12-20T15:00:12;99984.98;;;0.52;75.70
76337;BME280;65157;50.082;18.178;2022-12-20T15:08:27;99981.23;;;0.42;76.07
76337;BME280;65157;50.082;18.178;2022-12-20T15:13:38;99975.59;;;0.34;76.40